createdAt,value
2018-08-16T00:02:40.539Z,19.79
2018-08-16T00:07:37.934Z,20.00
2018-08-16T00:12:35.326Z,20.00
2018-08-16T00:17:32.739Z,19.93
2018-08-16T00:22:30.148Z,20.03
2018-08-16T00:27:27.499Z,20.01
2018-08-16T00:32:25.370Z,20.01
2018-08-16T00:37:23.312Z,20.13
2018-08-16T00:42:20.719Z,19.91
2018-08-16T00:47:18.136Z,19.88
2018-08-16T00:52:15.512Z,19.76
2018-08-16T00:57:12.917Z,19.73
2018-08-16T01:02:10.327Z,20.07
2018-08-16T01:07:07.747Z,19.68
2018-08-16T01:12:05.176Z,19.65
2018-08-16T01:17:02.675Z,20.11
2018-08-16T01:22:00.140Z,19.73
2018-08-16T01:26:57.531Z,19.56
2018-08-16T01:31:54.981Z,19.90
2018-08-16T01:36:52.447Z,19.88
2018-08-16T01:41:49.899Z,19.30
2018-08-16T01:46:49.274Z,19.22
2018-08-16T01:51:48.438Z,18.97
2018-08-16T01:56:46.892Z,18.90
2018-08-16T02:01:44.311Z,18.85
2018-08-16T02:06:41.739Z,18.64
2018-08-16T02:11:39.163Z,18.48
2018-08-16T02:16:37.265Z,18.32
2018-08-16T02:21:35.035Z,18.16
2018-08-16T02:26:32.459Z,18.00
2018-08-16T02:31:30.067Z,17.94
2018-08-16T02:36:27.483Z,17.78
2018-08-16T02:41:24.912Z,17.58
2018-08-16T02:46:22.367Z,17.52
2018-08-16T02:51:19.776Z,17.35
2018-08-16T02:56:17.159Z,17.18
2018-08-16T03:01:14.571Z,17.49
2018-08-16T03:06:12.078Z,17.06
2018-08-16T03:11:09.461Z,16.95
2018-08-16T03:16:07.038Z,16.77
2018-08-16T03:21:04.575Z,16.69
2018-08-16T03:26:02.022Z,16.76
2018-08-16T03:30:59.499Z,16.54
2018-08-16T03:35:56.951Z,16.57
2018-08-16T03:40:54.440Z,16.33
2018-08-16T03:45:53.811Z,16.04
2018-08-16T03:50:51.264Z,16.36
2018-08-16T03:55:48.767Z,16.12
2018-08-16T04:00:46.228Z,15.90
2018-08-16T04:05:43.671Z,15.80
2018-08-16T04:10:41.120Z,15.70
2018-08-16T04:15:38.600Z,15.61
2018-08-16T04:20:36.081Z,15.56
2018-08-16T04:25:33.517Z,15.56
2018-08-16T04:30:30.921Z,15.65
2018-08-16T04:35:28.509Z,15.77
2018-08-16T04:40:25.935Z,16.00
2018-08-16T04:45:23.390Z,15.82
2018-08-16T04:50:21.452Z,15.75
2018-08-16T04:55:18.891Z,16.14
2018-08-16T05:00:16.375Z,16.16
2018-08-16T05:05:13.830Z,16.17
2018-08-16T05:10:11.281Z,16.23
2018-08-16T05:15:11.118Z,16.34
2018-08-16T05:20:12.130Z,16.69
2018-08-16T05:25:09.675Z,16.67
2018-08-16T05:30:09.611Z,17.12
2018-08-16T05:35:07.250Z,20.36
2018-08-16T05:40:06.426Z,22.51
2018-08-16T05:45:04.118Z,23.36
2018-08-16T05:50:02.626Z,23.04
2018-08-16T05:55:00.055Z,22.77
2018-08-16T05:59:57.503Z,21.95
2018-08-16T06:04:54.926Z,21.11
2018-08-16T06:09:52.336Z,20.70
2018-08-16T06:14:49.779Z,20.85
2018-08-16T06:19:48.249Z,21.00
2018-08-16T06:24:45.666Z,21.30
2018-08-16T06:29:43.124Z,21.21
2018-08-16T06:34:40.668Z,21.57
2018-08-16T06:39:38.114Z,21.93
2018-08-16T06:44:35.553Z,21.97
2018-08-16T06:49:40.138Z,21.61
2018-08-16T06:54:37.615Z,21.79
2018-08-16T06:59:35.071Z,22.16
2018-08-16T07:04:32.538Z,22.47
2018-08-16T07:09:29.974Z,22.61
2018-08-16T07:14:28.002Z,22.14
2018-08-16T07:19:31.522Z,21.94
2018-08-16T07:24:29.008Z,22.16
2018-08-16T07:29:26.468Z,23.04
2018-08-16T07:34:23.894Z,21.69
2018-08-16T07:39:21.374Z,22.41
2018-08-16T07:44:18.814Z,22.99
2018-08-16T07:49:21.880Z,22.57
2018-08-16T07:54:19.408Z,22.50
2018-08-16T07:59:16.811Z,23.77
2018-08-16T08:04:14.286Z,23.89
2018-08-16T08:09:11.921Z,23.25
2018-08-16T08:14:09.227Z,24.32
2018-08-16T08:19:09.590Z,24.78
2018-08-16T08:24:07.066Z,24.74
2018-08-16T08:29:04.487Z,24.70
2018-08-16T08:34:01.943Z,24.50
2018-08-16T08:38:59.402Z,23.55
2018-08-16T08:44:07.063Z,23.55
2018-08-16T08:49:07.673Z,23.85
2018-08-16T08:54:47.029Z,24.66
2018-08-16T08:59:44.474Z,24.98
2018-08-16T09:04:41.979Z,25.67
2018-08-16T09:10:49.979Z,26.06
2018-08-16T09:15:49.543Z,24.75
2018-08-16T09:20:46.999Z,25.59
2018-08-16T09:25:44.413Z,24.74
2018-08-16T09:30:53.187Z,25.08
2018-08-16T09:35:50.657Z,25.42
2018-08-16T09:40:48.107Z,25.18
2018-08-16T09:47:11.156Z,25.35
2018-08-16T09:52:09.455Z,25.15
2018-08-16T09:57:08.803Z,26.05
2018-08-16T10:02:07.566Z,25.35
2018-08-16T10:07:05.015Z,24.99
2018-08-16T10:12:02.850Z,25.54
2018-08-16T10:17:00.279Z,25.59
2018-08-16T10:21:57.994Z,26.52
2018-08-16T10:26:55.514Z,26.54
2018-08-16T10:31:52.949Z,25.46
2018-08-16T10:36:50.407Z,25.59
2018-08-16T10:41:47.858Z,27.32
2018-08-16T10:46:45.335Z,28.25
2018-08-16T10:51:43.663Z,27.68
2018-08-16T10:56:41.107Z,26.12
2018-08-16T11:01:38.682Z,26.57
2018-08-16T11:06:36.157Z,27.19
2018-08-16T11:11:33.707Z,27.36
2018-08-16T11:16:31.152Z,27.38
2018-08-16T11:21:28.586Z,27.39
2018-08-16T11:26:26.035Z,28.02
2018-08-16T11:31:23.475Z,27.62
2018-08-16T11:36:20.882Z,28.39
2018-08-16T11:41:18.342Z,27.22
2018-08-16T11:46:15.755Z,28.08
2018-08-16T11:51:13.172Z,28.01
2018-08-16T11:56:10.600Z,28.80
2018-08-16T12:01:08.196Z,28.19
2018-08-16T12:06:05.787Z,27.54
2018-08-16T12:11:03.241Z,28.88
2018-08-16T12:16:00.687Z,28.87
2018-08-16T12:20:58.240Z,27.27
2018-08-16T12:25:55.656Z,27.81
2018-08-16T12:30:53.115Z,28.83
2018-08-16T12:35:50.595Z,29.04
2018-08-16T12:40:50.109Z,28.89
2018-08-16T12:45:45.514Z,29.37
2018-08-16T12:50:49.584Z,29.28
2018-08-16T12:55:47.017Z,29.61
2018-08-16T13:00:44.443Z,29.10
2018-08-16T13:05:41.932Z,28.89
2018-08-16T13:10:39.344Z,29.10
2018-08-16T13:15:36.874Z,28.95
2018-08-16T13:20:34.297Z,30.40
2018-08-16T13:25:31.708Z,30.95
2018-08-16T13:30:29.173Z,29.66
2018-08-16T13:35:26.612Z,29.48
2018-08-16T13:40:24.055Z,29.21
2018-08-16T13:45:21.522Z,29.56
2018-08-16T13:50:19.436Z,29.60
2018-08-16T13:55:17.479Z,28.91
2018-08-16T14:00:14.883Z,29.18
2018-08-16T14:05:12.342Z,30.47
2018-08-16T14:10:09.846Z,30.32
2018-08-16T14:15:07.739Z,28.87
2018-08-16T14:20:06.721Z,29.08
2018-08-16T14:25:04.991Z,28.89
2018-08-16T14:30:02.499Z,29.64
2018-08-16T14:34:59.913Z,30.63
2018-08-16T14:39:57.339Z,30.05
2018-08-16T14:44:54.787Z,29.57
2018-08-16T14:49:53.396Z,29.40
2018-08-16T14:54:50.807Z,29.10
2018-08-16T14:59:48.253Z,29.47
2018-08-16T15:04:45.686Z,30.71
2018-08-16T15:09:43.102Z,30.34
2018-08-16T15:14:40.528Z,29.75
2018-08-16T15:19:41.812Z,29.91
2018-08-16T15:24:39.335Z,29.85
2018-08-16T15:29:36.763Z,29.55
2018-08-16T15:34:34.244Z,30.35
2018-08-16T15:39:31.660Z,30.90
2018-08-16T15:44:29.530Z,29.77
2018-08-16T15:49:31.018Z,29.01
2018-08-16T15:54:28.573Z,28.96
2018-08-16T15:59:25.996Z,28.88
2018-08-16T16:04:23.412Z,29.41
2018-08-16T16:09:24.483Z,29.80
2018-08-16T16:14:22.768Z,29.44
2018-08-16T16:19:28.610Z,29.38
2018-08-16T16:24:26.199Z,29.01
2018-08-16T16:29:23.640Z,28.93
2018-08-16T16:34:21.081Z,28.89
2018-08-16T16:39:18.551Z,28.89
2018-08-16T16:44:16.009Z,28.54
2018-08-16T16:49:25.514Z,28.96
2018-08-16T16:54:23.062Z,28.75
2018-08-16T16:59:20.522Z,28.40
2018-08-16T17:04:17.943Z,28.68
2018-08-16T17:09:15.358Z,28.47
2018-08-16T17:14:12.924Z,28.18
2018-08-16T17:19:12.557Z,28.09
2018-08-16T17:24:10.062Z,28.31
2018-08-16T17:29:07.576Z,28.14
2018-08-16T17:34:05.013Z,27.54
2018-08-16T17:39:02.699Z,27.71
2018-08-16T17:44:00.108Z,27.62
2018-08-16T17:48:57.566Z,27.57
2018-08-16T17:53:55.791Z,27.29
2018-08-16T17:58:53.274Z,26.93
2018-08-16T18:03:50.725Z,26.99
2018-08-16T18:08:48.161Z,27.08
2018-08-16T18:13:45.551Z,26.66
2018-08-16T18:18:43.010Z,26.27
2018-08-16T18:23:40.429Z,26.06
2018-08-16T18:28:37.876Z,25.76
2018-08-16T18:33:35.299Z,25.53
2018-08-16T18:38:32.710Z,25.33
2018-08-16T18:43:30.152Z,25.24
2018-08-16T18:48:27.603Z,25.15
2018-08-16T18:53:24.977Z,24.90
2018-08-16T18:58:22.422Z,24.41
2018-08-16T19:03:19.856Z,24.39
2018-08-16T19:08:17.312Z,23.77
2018-08-16T19:13:14.779Z,23.36
2018-08-16T19:18:12.194Z,22.95
2018-08-16T19:23:09.621Z,23.54
2018-08-16T19:28:07.047Z,23.53
2018-08-16T19:33:04.471Z,23.40
2018-08-16T19:38:01.863Z,23.31
2018-08-16T19:42:59.255Z,23.19
2018-08-16T19:47:56.719Z,23.01
2018-08-16T19:52:54.063Z,22.86
2018-08-16T19:57:51.476Z,22.70
2018-08-16T20:02:48.900Z,22.62
2018-08-16T20:07:46.292Z,22.48
2018-08-16T20:12:43.679Z,22.46
2018-08-16T20:17:41.103Z,22.36
2018-08-16T20:22:38.498Z,22.21
2018-08-16T20:27:35.915Z,22.11
2018-08-16T20:32:33.323Z,21.99
2018-08-16T20:37:30.758Z,21.88
2018-08-16T20:42:28.147Z,21.62
2018-08-16T20:47:25.583Z,21.33
2018-08-16T20:52:23.011Z,21.81
2018-08-16T20:57:20.447Z,21.61
2018-08-16T21:02:17.912Z,21.61
2018-08-16T21:07:15.291Z,21.64
2018-08-16T21:12:13.695Z,21.68
2018-08-16T21:17:11.199Z,21.51
2018-08-16T21:22:08.695Z,21.48
2018-08-16T21:27:06.122Z,21.41
2018-08-16T21:32:03.607Z,21.34
2018-08-16T21:37:01.025Z,21.23
2018-08-16T21:41:58.435Z,21.21
2018-08-16T21:46:55.902Z,21.08
2018-08-16T21:51:53.317Z,21.00
2018-08-16T21:56:50.746Z,20.96
2018-08-16T22:01:48.892Z,20.81
2018-08-16T22:07:13.244Z,20.73
2018-08-16T22:12:10.657Z,20.56
2018-08-16T22:17:08.055Z,20.50
2018-08-16T22:22:05.601Z,20.56
2018-08-16T22:27:03.059Z,20.44
2018-08-16T22:32:00.506Z,20.39
2018-08-16T22:36:57.898Z,20.36
2018-08-16T22:41:55.287Z,20.36
2018-08-16T22:46:52.693Z,20.43
2018-08-16T22:51:50.124Z,20.48
2018-08-16T22:56:47.516Z,20.45
2018-08-16T23:01:44.947Z,20.50
2018-08-16T23:06:42.389Z,20.32
2018-08-16T23:11:39.765Z,20.38
2018-08-16T23:16:39.285Z,20.25
2018-08-16T23:21:36.778Z,20.18
2018-08-16T23:26:34.175Z,20.04
2018-08-16T23:31:31.606Z,20.04
2018-08-16T23:36:28.998Z,19.91
2018-08-16T23:41:26.383Z,19.77
2018-08-16T23:46:23.792Z,19.90
2018-08-16T23:51:21.287Z,19.81
2018-08-16T23:56:18.678Z,19.86
